Time;durP1;ratioP1;P1;durP2;ratioP2;P2;SDS_P1;SDS_P2;PMS_P1;PMS_P2;Temp;Humidity;BMP_temperature;BMP_pressure;BME280_temperature;BME280_humidity;BME280_pressure;Samples;Min_cycle;Max_cycle;Signal;HPM_P1;HPM_P2
2022/09/13 00:01:04;;;;;;;6.35;4.95;;;;;;;10.94;89.96;100433.65;1583993;89;21069;-75
2022/09/13 00:03:33;;;;;;;7.53;4.58;;;;;;;10.91;90.00;100433.77;1573832;89;21608;-75
2022/09/13 00:06:13;;;;;;;7.58;4.67;;;;;;;10.90;90.29;100432.53;1576186;88;21024;-75
2022/09/13 00:08:40;;;;;;;7.08;5.00;;;;;;;10.89;90.09;100431.69;1583365;88;21048;-75
2022/09/13 00:11:09;;;;;;;6.22;5.25;;;;;;;10.86;90.07;100426.56;1588608;88;21773;-76
2022/09/13 00:13:37;;;;;;;7.03;5.47;;;;;;;10.81;90.07;100425.88;1578841;89;21036;-75
2022/09/13 00:16:06;;;;;;;8.68;4.70;;;;;;;10.80;90.23;100418.91;1574345;89;21077;-75
2022/09/13 00:18:33;;;;;;;8.25;5.47;;;;;;;10.80;90.31;100420.21;1574728;90;21040;-75
2022/09/13 00:21:09;;;;;;;8.18;5.87;;;;;;;10.77;90.31;100417.70;1577048;89;21077;-75
2022/09/13 00:23:37;;;;;;;10.08;6.50;;;;;;;10.78;90.51;100418.12;1583700;88;21321;-75
2022/09/13 00:26:12;;;;;;;10.58;6.25;;;;;;;10.81;90.82;100423.25;1583802;88;21108;-75
2022/09/13 00:28:40;;;;;;;8.70;6.33;;;;;;;10.80;90.63;100418.05;1583797;88;21290;-75
2022/09/13 00:31:09;;;;;;;10.53;7.58;;;;;;;10.77;90.69;100421.64;1595796;88;21678;-75
2022/09/13 00:33:37;;;;;;;9.18;7.25;;;;;;;10.78;90.95;100423.80;1616633;88;21049;-75
2022/09/13 00:36:10;;;;;;;9.55;7.60;;;;;;;10.78;90.94;100416.81;1570132;89;21534;-75
2022/09/13 00:38:39;;;;;;;10.10;7.45;;;;;;;10.79;90.98;100414.58;1574427;89;21069;-75
2022/09/13 00:41:11;;;;;;;8.83;7.92;;;;;;;10.79;91.28;100409.34;1576039;89;21498;-76
2022/09/13 00:43:55;;;;;;;9.95;7.33;;;;;;;10.81;91.18;100408.83;1574676;88;21032;-75
2022/09/13 00:46:39;;;;;;;8.00;7.05;;;;;;;10.79;91.12;100405.41;1609102;88;21030;-75
2022/09/13 00:49:18;;;;;;;12.00;7.58;;;;;;;10.80;91.55;100404.48;1607448;89;21161;-75
2022/09/13 00:51:50;;;;;;;9.53;7.30;;;;;;;10.86;91.76;100402.08;1608952;89;21036;-75
2022/09/13 00:54:20;;;;;;;9.90;6.72;;;;;;;10.88;91.60;100404.20;1577991;88;21146;-77
2022/09/13 00:56:52;;;;;;;8.20;7.22;;;;;;;10.89;91.80;100397.59;1593419;88;21044;-75
2022/09/13 00:59:24;;;;;;;9.35;8.13;;;;;;;10.92;92.18;100392.69;1584050;88;21067;-75
2022/09/13 01:01:55;;;;;;;9.48;8.20;;;;;;;10.96;92.53;100391.64;1609387;88;21150;-75
2022/09/13 01:04:26;;;;;;;9.93;7.60;;;;;;;11.02;92.97;100391.40;1609486;88;21052;-77
2022/09/13 01:06:58;;;;;;;9.53;7.65;;;;;;;11.06;92.99;100383.83;1580207;89;21049;-75
2022/09/13 01:09:26;;;;;;;10.13;7.47;;;;;;;11.11;93.12;100392.38;1579130;90;21624;-75
2022/09/13 01:12:03;;;;;;;8.18;7.15;;;;;;;11.14;93.19;100383.07;1608610;89;21677;-75
2022/09/13 01:14:27;;;;;;;8.73;6.85;;;;;;;11.18;93.12;100385.56;1613491;87;21140;-75
2022/09/13 01:16:54;;;;;;;8.18;6.97;;;;;;;11.20;93.09;100391.16;1570120;89;21016;-75
2022/09/13 01:19:22;;;;;;;8.13;6.70;;;;;;;11.20;93.04;100386.37;1570135;89;21508;-78
2022/09/13 01:22:31;;;;;;;7.85;6.92;;;;;;;11.22;93.04;100383.20;1570722;89;21036;-76
2022/09/13 01:25:31;;;;;;;7.87;7.08;;;;;;;11.22;92.94;100379.27;1581807;90;21526;-76
2022/09/13 01:28:41;;;;;;;13.83;6.58;;;;;;;11.21;92.93;100374.95;1581717;90;21152;-76
2022/09/13 01:31:17;;;;;;;12.53;6.90;;;;;;;11.21;92.93;100376.26;1609092;89;21078;-76
2022/09/13 01:34:11;;;;;;;8.40;6.70;;;;;;;11.17;92.76;100368.98;1609928;88;21040;-76
2022/09/13 01:36:56;;;;;;;14.83;6.10;;;;;;;11.15;92.81;100366.86;1627473;87;21147;-76
2022/09/13 01:39:34;;;;;;;9.20;6.78;;;;;;;11.10;92.77;100363.10;1629179;88;21051;-76
2022/09/13 01:42:24;;;;;;;9.35;6.37;;;;;;;11.07;92.88;100365.00;1589202;87;21045;-78
2022/09/13 01:45:21;;;;;;;12.17;5.73;;;;;;;11.03;92.88;100363.40;1572738;88;21505;-76
2022/09/13 01:48:11;;;;;;;15.20;6.12;;;;;;;11.00;92.83;100359.16;1606986;87;21032;-75
2022/09/13 01:51:05;;;;;;;7.03;6.15;;;;;;;10.95;92.96;100357.17;1630980;87;21477;-78
2022/09/13 01:53:56;;;;;;;9.43;6.35;;;;;;;10.91;92.87;100349.01;1600725;87;21558;-76
2022/09/13 01:56:34;;;;;;;10.98;6.00;;;;;;;10.84;92.69;100343.62;1607747;87;21534;-76
2022/09/13 01:59:06;;;;;;;10.98;6.67;;;;;;;10.79;92.79;100339.02;1610996;87;21092;-76
2022/09/13 02:01:37;;;;;;;7.25;6.03;;;;;;;10.74;92.84;100337.87;1630201;87;21588;-76
2022/09/13 02:04:13;;;;;;;6.83;6.15;;;;;;;10.71;92.95;100334.91;1630924;87;21052;-75
2022/09/13 02:06:48;;;;;;;6.92;5.85;;;;;;;10.70;93.02;100335.83;1630915;87;21585;-77
2022/09/13 02:09:22;;;;;;;6.90;6.22;;;;;;;10.69;92.97;100328.86;1630699;87;21987;-76
2022/09/13 02:11:58;;;;;;;8.55;6.00;;;;;;;10.67;93.02;100325.47;1630933;87;21578;-77
2022/09/13 02:14:30;;;;;;;5.95;5.42;;;;;;;10.67;93.05;100316.29;1630851;87;21049;-75
2022/09/13 02:17:19;;;;;;;6.90;6.20;;;;;;;10.66;92.87;100315.88;1610353;88;21112;-75
2022/09/13 02:19:54;;;;;;;7.22;6.30;;;;;;;10.62;92.73;100310.37;1631179;88;21047;-78
2022/09/13 02:22:26;;;;;;;7.42;6.58;;;;;;;10.66;93.33;100311.09;1617049;88;21267;-77
2022/09/13 02:24:58;;;;;;;7.72;6.85;;;;;;;10.65;93.04;100303.69;1630972;87;20967;-76
2022/09/13 02:27:29;;;;;;;8.93;7.58;;;;;;;10.64;92.81;100302.42;1630734;87;21039;-77
2022/09/13 02:30:01;;;;;;;10.30;8.73;;;;;;;10.65;93.30;100299.77;1630899;87;21019;-76
2022/09/13 02:32:36;;;;;;;9.48;7.60;;;;;;;10.68;93.57;100300.95;1630998;87;21130;-75
2022/09/13 02:35:14;;;;;;;11.35;8.20;;;;;;;10.69;93.55;100293.47;1587658;88;21064;-77
2022/09/13 02:37:46;;;;;;;8.30;7.50;;;;;;;10.70;93.47;100292.58;1575837;89;21049;-77
2022/09/13 02:40:20;;;;;;;9.15;7.65;;;;;;;10.65;92.95;100290.59;1580759;87;21298;-75
2022/09/13 02:43:13;;;;;;;8.30;7.30;;;;;;;10.64;93.03;100290.63;1599714;88;21060;-76
2022/09/13 02:45:45;;;;;;;9.10;7.65;;;;;;;10.62;93.10;100284.16;1599967;88;21071;-76
2022/09/13 02:48:39;;;;;;;8.40;7.35;;;;;;;10.60;93.18;100282.51;1600749;87;21181;-75
2022/09/13 02:51:13;;;;;;;8.55;7.65;;;;;;;10.57;93.27;100269.53;1598462;88;21763;-77
2022/09/13 02:53:58;;;;;;;9.95;7.72;;;;;;;10.55;93.53;100265.64;1597017;88;21523;-76
2022/09/13 02:56:45;;;;;;;11.75;7.72;;;;;;;10.54;93.74;100260.02;1610219;88;21066;-78
2022/09/13 02:59:20;;;;;;;10.20;7.92;;;;;;;10.55;93.78;100259.55;1619524;88;21093;-76
2022/09/13 03:01:58;;;;;;;10.05;9.05;;;;;;;10.53;93.73;100252.20;1619715;88;21151;-76
2022/09/13 03:04:27;;;;;;;11.05;8.83;;;;;;;10.54;94.07;100240.83;1627104;87;21491;-78
2022/09/13 03:06:54;;;;;;;8.90;7.80;;;;;;;10.56;94.23;100246.83;1627241;87;21012;-76
2022/09/13 03:09:22;;;;;;;11.47;8.63;;;;;;;10.56;94.13;100242.90;1628865;87;21104;-76
2022/09/13 03:12:18;;;;;;;10.70;9.60;;;;;;;10.57;94.26;100238.08;1629047;87;21501;-77
2022/09/13 03:15:24;;;;;;;8.65;7.83;;;;;;;10.60;94.39;100244.50;1527662;91;21332;-78
2022/09/13 03:18:20;;;;;;;10.15;8.30;;;;;;;10.61;94.19;100244.42;1580881;88;21613;-78
2022/09/13 03:21:07;;;;;;;9.90;8.25;;;;;;;10.59;94.03;100237.56;1612923;88;21055;-76
2022/09/13 03:24:07;;;;;;;9.75;8.75;;;;;;;10.56;94.13;100230.67;1605163;89;21014;-77
2022/09/13 03:26:45;;;;;;;10.67;8.37;;;;;;;10.55;94.06;100235.50;1600958;87;21039;-76
2022/09/13 03:29:42;;;;;;;12.82;9.25;;;;;;;10.52;93.94;100227.77;1628866;87;21143;-76
2022/09/13 03:32:35;;;;;;;11.28;9.70;;;;;;;10.50;94.13;100224.34;1609161;88;21035;-76
2022/09/13 03:35:41;;;;;;;13.48;9.60;;;;;;;10.52;94.44;100224.30;1593925;88;21010;-76
2022/09/13 03:38:23;;;;;;;12.83;10.23;;;;;;;10.54;94.64;100225.95;1592418;87;20998;-76
2022/09/13 03:40:58;;;;;;;11.87;9.80;;;;;;;10.54;94.85;100231.19;1658972;86;21544;-76
2022/09/13 03:43:34;;;;;;;11.40;9.90;;;;;;;10.57;94.88;100231.52;1627110;87;21169;-76
2022/09/13 03:46:12;;;;;;;11.53;9.48;;;;;;;10.58;94.96;100226.20;1628841;87;21426;-76
2022/09/13 03:48:41;;;;;;;11.22;10.03;;;;;;;10.60;94.87;100219.61;1628334;87;21028;-76
2022/09/13 03:51:10;;;;;;;11.05;9.73;;;;;;;10.62;94.87;100220.41;1628868;87;21023;-76
2022/09/13 03:53:48;;;;;;;12.95;9.88;;;;;;;10.63;94.84;100215.55;1628147;87;21477;-76
2022/09/13 03:56:18;;;;;;;12.13;9.45;;;;;;;10.63;94.80;100216.40;1628425;87;21219;-76
2022/09/13 03:58:47;;;;;;;10.97;9.57;;;;;;;10.65;94.99;100209.80;1628755;87;21063;-76
2022/09/13 04:01:21;;;;;;;10.00;9.00;;;;;;;10.65;94.82;100208.48;1628083;87;21062;-76
2022/09/13 04:03:49;;;;;;;10.10;8.85;;;;;;;10.65;94.82;100209.80;1625560;87;21533;-76
2022/09/13 04:06:16;;;;;;;9.13;8.13;;;;;;;10.63;94.77;100203.29;1628195;87;21043;-75
2022/09/13 04:08:44;;;;;;;9.35;8.45;;;;;;;10.60;94.66;100199.48;1628859;87;21106;-76
2022/09/13 04:11:11;;;;;;;9.65;8.40;;;;;;;10.60;94.71;100199.95;1627408;87;21043;-78
2022/09/13 04:13:38;;;;;;;9.98;8.63;;;;;;;10.60;94.79;100205.19;1628584;87;21528;-78
2022/09/13 04:16:06;;;;;;;10.70;9.10;;;;;;;10.60;94.78;100203.42;1628071;87;21008;-78
2022/09/13 04:18:35;;;;;;;10.67;8.83;;;;;;;10.60;94.82;100202.57;1629030;87;21086;-77
2022/09/13 04:21:03;;;;;;;10.32;9.25;;;;;;;10.62;94.90;100204.68;1627942;87;21136;-77
2022/09/13 04:23:30;;;;;;;10.13;8.98;;;;;;;10.64;94.96;100202.83;1628444;87;20975;-76
2022/09/13 04:26:05;;;;;;;11.08;8.83;;;;;;;10.67;94.93;100205.36;1627803;87;21115;-78
2022/09/13 04:28:32;;;;;;;10.23;9.13;;;;;;;10.67;94.83;100207.52;1628866;87;21043;-76
2022/09/13 04:30:59;;;;;;;11.35;9.15;;;;;;;10.67;94.87;100201.42;1620213;87;21130;-78
2022/09/13 04:33:26;;;;;;;10.03;8.95;;;;;;;10.68;94.84;100209.67;1597115;88;21141;-79
2022/09/13 04:35:59;;;;;;;10.78;9.18;;;;;;;10.66;94.57;100209.72;1597101;88;21168;-77
2022/09/13 04:38:26;;;;;;;10.72;8.45;;;;;;;10.65;94.60;100208.02;1597227;89;21064;-77
2022/09/13 04:40:54;;;;;;;9.65;8.28;;;;;;;10.66;94.68;100210.18;1611001;87;21065;-78
2022/09/13 04:43:23;;;;;;;9.60;8.60;;;;;;;10.65;94.62;100209.80;1616614;87;21068;-78
2022/09/13 04:45:50;;;;;;;13.45;9.28;;;;;;;10.65;94.61;100211.11;1616303;87;21120;-77
2022/09/13 04:48:17;;;;;;;10.67;9.00;;;;;;;10.65;94.69;100204.09;1616052;87;22359;-78
2022/09/13 04:50:45;;;;;;;10.20;9.10;;;;;;;10.64;94.65;100199.77;1615898;87;21067;-78
2022/09/13 04:53:12;;;;;;;10.08;8.65;;;;;;;10.65;94.66;100199.31;1614815;88;21052;-78
2022/09/13 04:55:39;;;;;;;10.13;9.05;;;;;;;10.65;94.72;100200.63;1613625;87;21109;-78
2022/09/13 04:58:06;;;;;;;9.65;8.65;;;;;;;10.66;94.91;100199.23;1615942;87;21142;-77
2022/09/13 05:00:33;;;;;;;9.08;8.18;;;;;;;10.68;94.93;100204.42;1616401;87;21078;-83
2022/09/13 05:03:00;;;;;;;9.43;8.18;;;;;;;10.68;94.89;100205.73;1612257;87;21026;-77
2022/09/13 05:05:28;;;;;;;10.10;8.80;;;;;;;10.70;94.92;100199.52;1614336;87;21117;-77
2022/09/13 05:07:55;;;;;;;10.05;8.85;;;;;;;10.72;94.93;100204.68;1615864;87;21543;-77
2022/09/13 05:10:23;;;;;;;11.08;9.08;;;;;;;10.73;94.99;100192.45;1613885;88;21574;-77
2022/09/13 05:12:51;;;;;;;11.70;9.08;;;;;;;10.73;94.98;100181.97;1602872;88;21051;-77
2022/09/13 05:15:18;;;;;;;9.63;8.63;;;;;;;10.72;94.91;100175.84;1616377;88;21120;-77
2022/09/13 05:17:45;;;;;;;11.43;9.38;;;;;;;10.71;94.91;100178.09;1615519;87;21073;-77
2022/09/13 05:20:12;;;;;;;9.73;8.63;;;;;;;10.72;94.92;100175.84;1604791;87;21271;-76
2022/09/13 05:22:40;;;;;;;11.43;9.23;;;;;;;10.72;94.95;100175.84;1616476;87;21152;-76
2022/09/13 05:25:08;;;;;;;10.25;8.55;;;;;;;10.74;95.12;100175.80;1616832;87;21567;-77
2022/09/13 05:27:35;;;;;;;8.45;7.58;;;;;;;10.75;95.20;100172.25;1616540;87;21073;-77
2022/09/13 05:30:02;;;;;;;10.43;8.58;;;;;;;10.77;95.26;100169.96;1610080;87;21077;-77
2022/09/13 05:32:31;;;;;;;9.93;8.48;;;;;;;10.79;95.45;100176.00;1615155;87;21120;-77
2022/09/13 05:34:58;;;;;;;10.40;8.58;;;;;;;10.81;95.60;100163.69;1616923;87;21127;-78
2022/09/13 05:37:25;;;;;;;12.10;9.13;;;;;;;10.84;95.62;100163.56;1611196;87;21087;-77
2022/09/13 05:39:52;;;;;;;11.08;8.85;;;;;;;10.87;95.65;100168.67;1612287;88;21478;-77
2022/09/13 05:42:19;;;;;;;11.08;9.68;;;;;;;10.88;95.63;100162.50;1611570;87;21061;-77
2022/09/13 05:44:46;;;;;;;10.80;9.08;;;;;;;10.89;95.60;100159.41;1612172;87;21080;-77
2022/09/13 05:47:13;;;;;;;12.30;9.58;;;;;;;10.91;95.65;100153.65;1612230;88;21939;-77
2022/09/13 05:49:40;;;;;;;11.68;9.53;;;;;;;10.93;95.74;100153.14;1612307;87;21518;-77
2022/09/13 05:52:08;;;;;;;13.13;9.80;;;;;;;10.93;95.68;100150.05;1612959;88;21076;-77
2022/09/13 05:54:36;;;;;;;10.85;9.18;;;;;;;10.97;95.87;100142.05;1610323;87;21042;-77
2022/09/13 05:57:03;;;;;;;11.73;9.43;;;;;;;11.02;96.10;100153.20;1593879;89;21131;-77
2022/09/13 05:59:31;;;;;;;12.25;10.05;;;;;;;11.06;96.07;100148.23;1594522;88;21145;-77
2022/09/13 06:01:58;;;;;;;11.85;9.88;;;;;;;11.09;96.17;100145.01;1602689;88;21098;-77
2022/09/13 06:04:27;;;;;;;14.58;10.10;;;;;;;11.12;96.27;100141.41;1602737;88;22392;-77
2022/09/13 06:06:54;;;;;;;13.68;10.78;;;;;;;11.19;96.50;100136.73;1602632;88;21153;-77
2022/09/13 06:09:21;;;;;;;18.77;10.95;;;;;;;11.22;96.28;100124.32;1609938;87;22428;-77
2022/09/13 06:11:48;;;;;;;14.00;11.15;;;;;;;11.27;96.30;100125.44;1594644;89;21985;-77
2022/09/13 06:14:16;;;;;;;11.80;9.93;;;;;;;11.31;96.38;100129.19;1593604;88;21063;-76
2022/09/13 06:16:44;;;;;;;12.45;9.75;;;;;;;11.32;96.17;100125.63;1590722;89;21054;-77
2022/09/13 06:19:11;;;;;;;14.05;10.63;;;;;;;11.37;96.26;100122.81;1612040;87;21487;-78
2022/09/13 06:21:38;;;;;;;12.80;10.18;;;;;;;11.42;96.29;100123.46;1612494;87;21121;-76
2022/09/13 06:24:06;;;;;;;11.35;9.75;;;;;;;11.46;96.29;100119.77;1609798;87;21900;-77
2022/09/13 06:26:33;;;;;;;12.70;9.93;;;;;;;11.50;96.25;100123.97;1611024;87;21502;-77
2022/09/13 06:29:01;;;;;;;13.93;9.90;;;;;;;11.54;96.33;100121.58;1612448;87;21068;-77
2022/09/13 06:31:28;;;;;;;10.63;9.50;;;;;;;11.58;96.48;100119.22;1612586;87;21116;-77
2022/09/13 06:34:01;;;;;;;12.05;9.90;;;;;;;11.65;96.58;100117.63;1609943;87;21048;-77
2022/09/13 06:36:30;;;;;;;18.17;11.60;;;;;;;11.69;96.57;100109.52;1608242;87;21170;-77
2022/09/13 06:38:59;;;;;;;11.55;9.85;;;;;;;11.78;96.82;100105.64;1600296;88;21056;-77
2022/09/13 06:41:26;;;;;;;11.40;10.00;;;;;;;11.84;96.83;100102.25;1592330;88;21574;-77
2022/09/13 06:44:00;;;;;;;14.70;10.30;;;;;;;11.92;96.93;100101.93;1601015;88;21043;-79
2022/09/13 06:46:30;;;;;;;11.20;10.05;;;;;;;12.00;97.01;100098.95;1593271;88;21088;-87
2022/09/13 06:49:03;;;;;;;12.80;10.00;;;;;;;12.10;96.99;100096.71;1582791;89;21218;-81
2022/09/13 06:51:33;;;;;;;11.93;9.63;;;;;;;12.19;97.11;100096.26;1584950;89;21064;-79
2022/09/13 06:54:02;;;;;;;10.85;9.75;;;;;;;12.31;97.22;100101.41;1580184;89;21123;-82
2022/09/13 06:56:33;;;;;;;12.18;10.30;;;;;;;12.41;97.29;100101.31;1585982;87;21336;-77
2022/09/13 06:59:03;;;;;;;10.35;9.25;;;;;;;12.52;97.25;100104.27;1586391;87;21132;-78
2022/09/13 07:01:42;;;;;;;10.08;8.73;;;;;;;12.61;97.22;100105.14;1590787;88;21265;-77
2022/09/13 07:04:12;;;;;;;12.47;9.55;;;;;;;12.70;97.37;100103.82;1580524;88;21080;-76
2022/09/13 07:06:41;;;;;;;;;;;;;;;12.81;97.54;100103.28;1584568;88;21079;-76
2022/09/13 07:09:16;;;;;;;9.65;8.58;;;;;;;12.88;97.64;100091.03;1546271;90;20507;-77
2022/09/13 07:11:46;;;;;;;9.78;8.38;;;;;;;12.95;97.29;100104.27;1571427;89;21119;-76
2022/09/13 07:14:16;;;;;;;10.70;9.05;;;;;;;12.99;97.15;100100.16;1576972;89;21146;-77
2022/09/13 07:16:45;;;;;;;9.58;8.50;;;;;;;13.03;96.98;100100.40;1598474;88;21070;-81
2022/09/13 07:19:16;;;;;;;10.10;8.30;;;;;;;13.05;96.70;100087.99;1611261;87;21069;-78
2022/09/13 07:21:43;;;;;;;10.65;8.20;;;;;;;13.12;96.96;100087.59;1604145;87;21826;-81
2022/09/13 07:24:11;;;;;;;9.95;7.83;;;;;;;13.18;96.90;100091.22;1596549;87;21060;-79
2022/09/13 07:26:38;;;;;;;9.43;7.58;;;;;;;13.24;96.70;100093.98;1593097;88;21159;-80
2022/09/13 07:29:09;;;;;;;10.53;7.37;;;;;;;13.29;96.55;100091.16;1601516;88;21092;-76
2022/09/13 07:31:40;;;;;;;10.45;7.47;;;;;;;13.34;96.59;100086.03;1604406;88;21492;-77
2022/09/13 07:34:09;;;;;;;;;;;;;;;13.44;96.86;100082.45;1597570;88;21060;-78
2022/09/13 07:36:37;;;;;;;9.90;7.77;;;;;;;13.55;97.23;100077.45;1579059;89;20531;-78
2022/09/13 07:39:05;;;;;;;9.98;6.62;;;;;;;13.69;97.17;100077.14;1573463;89;21151;-78
2022/09/13 07:41:33;;;;;;;9.98;6.75;;;;;;;13.83;97.18;100075.45;1595370;88;21084;-78
2022/09/13 07:44:06;;;;;;;9.55;6.40;;;;;;;13.95;96.78;100078.34;1610729;87;21069;-77
2022/09/13 07:46:38;;;;;;;9.28;6.35;;;;;;;14.05;96.43;100079.06;1603701;87;21038;-78
2022/09/13 07:49:05;;;;;;;7.05;6.25;;;;;;;14.13;96.04;100073.80;1588171;87;21049;-78
2022/09/13 07:51:35;;;;;;;9.03;6.42;;;;;;;14.19;95.92;100075.64;1585763;88;21865;-78
2022/09/13 07:54:04;;;;;;;;;;;;;;;14.26;95.73;100084.87;1596622;88;21570;-78
2022/09/13 07:56:33;;;;;;;6.78;6.05;;;;;;;14.35;95.66;100082.65;1585316;88;20193;-78
2022/09/13 07:59:05;;;;;;;8.03;6.28;;;;;;;14.47;95.80;100081.95;1589473;88;21008;-78
2022/09/13 08:01:45;;;;;;;8.23;6.47;;;;;;;14.61;96.04;100079.39;1592930;90;21532;-79
2022/09/13 08:04:20;;;;;;;7.35;6.12;;;;;;;14.78;95.96;100082.82;1586304;88;21165;-79
2022/09/13 08:06:47;;;;;;;7.53;6.03;;;;;;;14.95;95.88;100079.54;1592953;88;20995;-79
2022/09/13 08:09:16;;;;;;;8.78;6.40;;;;;;;15.10;95.64;100082.19;1581047;88;21089;-78
2022/09/13 08:11:48;;;;;;;6.95;5.50;;;;;;;15.23;95.65;100078.34;1570180;90;21043;-78
2022/09/13 08:14:17;;;;;;;7.97;6.55;;;;;;;15.35;95.14;100077.56;1592796;88;21035;-79
2022/09/13 08:16:45;;;;;;;6.37;5.40;;;;;;;15.48;95.04;100073.22;1583668;88;21161;-79
2022/09/13 08:19:17;;;;;;;6.92;5.58;;;;;;;15.83;94.84;100058.30;1592727;88;21107;-78
2022/09/13 08:21:45;;;;;;;5.90;5.30;;;;;;;15.83;94.84;100058.30;1592893;88;21055;-78
2022/09/13 08:24:17;;;;;;;7.83;5.17;;;;;;;16.14;94.93;100054.98;1592828;88;21430;-79
2022/09/13 08:26:44;;;;;;;4.85;4.20;;;;;;;16.40;94.20;100055.41;1592735;88;21027;-78
2022/09/13 08:29:13;;;;;;;5.85;4.70;;;;;;;16.62;93.81;100061.43;1629543;87;21167;-78
2022/09/13 08:31:42;;;;;;;6.70;4.70;;;;;;;16.85;93.23;100059.92;1623985;87;21007;-80
2022/09/13 08:34:13;;;;;;;6.62;5.00;;;;;;;17.07;92.56;100053.11;1623809;86;21087;-77
2022/09/13 08:36:41;;;;;;;7.92;5.37;;;;;;;17.23;91.94;100067.47;1614791;87;21485;-80
2022/09/13 08:39:10;;;;;;;5.42;4.50;;;;;;;17.30;90.95;100064.77;1585465;88;21507;-78
2022/09/13 08:41:46;;;;;;;9.05;5.15;;;;;;;17.48;89.97;100062.12;1585096;89;21135;-78
2022/09/13 08:44:25;;;;;;;5.40;4.90;;;;;;;17.48;89.97;100062.12;1612440;87;21070;-80
2022/09/13 08:47:36;;;;;;;5.95;4.60;;;;;;;17.52;89.48;100053.02;1615448;87;21048;-78
2022/09/13 08:50:22;;;;;;;;;;;;;;;;;;1555793;90;21889;-80
2022/09/13 08:53:15;;;;;;;5.75;4.60;;;;;;;17.63;88.52;100052.73;1594584;88;20212;-78
2022/09/13 08:56:11;;;;;;;5.58;4.22;;;;;;;17.67;88.46;100060.82;1573265;90;21978;-79
2022/09/13 08:58:55;;;;;;;7.15;4.95;;;;;;;17.74;88.46;100064.25;1619525;88;21037;-78
2022/09/13 09:01:37;;;;;;;6.28;4.80;;;;;;;17.78;87.90;100061.77;1601458;88;21063;-78
2022/09/13 09:04:12;;;;;;;9.63;5.12;;;;;;;17.77;87.45;100062.70;1584625;90;21136;-78
2022/09/13 09:06:40;;;;;;;4.95;4.47;;;;;;;17.77;87.34;100059.20;1580512;90;21139;-79
2022/09/13 09:09:17;;;;;;;7.85;4.75;;;;;;;17.75;87.03;100055.33;1620341;88;21180;-79
2022/09/13 09:12:02;;;;;;;7.03;4.70;;;;;;;17.75;87.04;100049.19;1589630;90;21530;-80
2022/09/13 09:14:40;;;;;;;4.92;4.35;;;;;;;17.75;87.00;100048.70;1588188;90;21057;-79
2022/09/13 09:17:15;;;;;;;7.03;4.97;;;;;;;17.77;87.12;100048.13;1583974;90;21074;-79
2022/09/13 09:19:47;;;;;;;6.12;4.40;;;;;;;17.76;86.75;100043.79;1589372;90;21026;-79
2022/09/13 09:22:21;;;;;;;5.20;4.53;;;;;;;17.71;86.54;100041.95;1620721;88;21249;-80
2022/09/13 09:24:55;;;;;;;7.75;4.67;;;;;;;17.68;86.28;100044.82;1589402;90;21069;-79
2022/09/13 09:27:23;;;;;;;6.62;4.62;;;;;;;17.63;86.19;100031.53;1607202;89;21044;-79
2022/09/13 09:29:57;;;;;;;5.33;4.05;;;;;;;17.59;86.16;100025.59;1612546;88;21124;-79
2022/09/13 09:32:35;;;;;;;5.55;4.40;;;;;;;17.52;86.13;100018.57;1612463;89;21096;-79
2022/09/13 09:35:19;;;;;;;9.23;4.85;;;;;;;17.48;86.28;100007.81;1612663;88;21155;-78
2022/09/13 09:37:57;;;;;;;5.30;4.17;;;;;;;17.44;86.37;100005.52;1615912;86;21089;-79
2022/09/13 09:40:25;;;;;;;8.03;5.15;;;;;;;17.38;86.51;100010.77;1536726;91;21089;-79
2022/09/13 09:42:53;;;;;;;6.65;4.78;;;;;;;17.33;86.59;100004.47;1540298;91;21156;-78
2022/09/13 09:45:35;;;;;;;6.42;5.15;;;;;;;17.28;86.80;99999.97;1551956;91;21127;-79
2022/09/13 09:48:08;;;;;;;5.58;4.92;;;;;;;17.24;86.86;100003.81;1532593;92;21325;-79
2022/09/13 09:50:41;;;;;;;8.40;5.80;;;;;;;17.19;86.87;100009.91;1536293;91;21596;-77
2022/09/13 09:53:32;;;;;;;5.78;5.00;;;;;;;17.17;87.18;100011.33;1552150;91;21060;-78
2022/09/13 09:56:24;;;;;;;9.33;5.65;;;;;;;17.14;87.59;100006.24;1537588;91;21027;-77
2022/09/13 09:58:56;;;;;;;8.00;5.62;;;;;;;17.17;88.08;100009.16;1566441;90;21087;-78
2022/09/13 10:01:33;;;;;;;8.18;5.03;;;;;;;17.22;88.55;100004.88;1566299;91;21147;-77
2022/09/13 10:04:15;;;;;;;5.22;4.72;;;;;;;17.27;88.60;99996.97;1565963;91;21043;-80
2022/09/13 10:06:45;;;;;;;5.37;4.67;;;;;;;17.32;88.41;99993.97;1566505;90;21035;-80
2022/09/13 10:09:19;;;;;;;8.43;4.55;;;;;;;17.39;88.47;99990.77;1566276;91;21055;-79
2022/09/13 10:11:56;;;;;;;5.80;4.33;;;;;;;17.50;88.56;99997.11;1565868;91;21687;-77
2022/09/13 10:14:42;;;;;;;5.00;4.15;;;;;;;17.63;88.62;99995.76;1566228;90;21987;-80
2022/09/13 10:17:25;;;;;;;5.15;3.77;;;;;;;17.79;88.67;100002.50;1574648;88;21039;-78
2022/09/13 10:20:02;;;;;;;4.80;4.17;;;;;;;17.96;88.40;100003.91;1625479;88;21059;-78
2022/09/13 10:22:32;;;;;;;5.17;4.30;;;;;;;18.09;87.93;99999.84;1588669;89;21465;-77
2022/09/13 10:25:26;;;;;;;4.37;3.98;;;;;;;18.16;87.22;99998.92;1597078;89;21514;-79
2022/09/13 10:27:56;;;;;;;4.58;4.17;;;;;;;18.22;86.96;99997.12;1593395;89;21154;-79
2022/09/13 10:30:56;;;;;;;4.35;3.90;;;;;;;18.24;86.48;99997.88;1597597;89;21063;-79
2022/09/13 10:33:31;;;;;;;4.60;4.05;;;;;;;18.25;86.36;99992.43;1586960;89;21532;-78
2022/09/13 10:36:09;;;;;;;4.70;4.22;;;;;;;18.33;86.32;99985.22;1598114;89;21020;-78
2022/09/13 10:38:40;;;;;;;6.45;3.92;;;;;;;18.40;86.28;99986.46;1600964;89;21576;-78
2022/09/13 10:41:11;;;;;;;4.72;4.05;;;;;;;18.46;85.93;99979.35;1614648;87;21598;-77
2022/09/13 10:43:38;;;;;;;5.03;4.12;;;;;;;18.50;85.73;99983.94;1612951;87;20943;-79
2022/09/13 10:46:10;;;;;;;6.10;3.85;;;;;;;18.52;85.28;99977.20;1614222;87;21081;-80
2022/09/13 10:48:47;;;;;;;5.35;4.42;;;;;;;18.52;85.18;99974.05;1614429;87;21328;-79
2022/09/13 10:51:28;;;;;;;4.50;4.10;;;;;;;18.52;85.06;99974.05;1614260;87;21547;-79
2022/09/13 10:54:25;;;;;;;4.97;4.25;;;;;;;18.54;85.07;99980.55;1603359;88;21191;-80
2022/09/13 10:56:52;;;;;;;5.62;4.33;;;;;;;18.55;85.02;99976.47;1638898;87;21040;-78
2022/09/13 10:59:30;;;;;;;5.72;4.37;;;;;;;18.56;84.84;99982.62;1643346;87;21044;-78
2022/09/13 11:02:21;;;;;;;4.70;4.20;;;;;;;18.55;84.44;99980.45;1638740;87;21056;-78
2022/09/13 11:05:05;;;;;;;5.70;4.65;;;;;;;18.58;84.40;99976.72;1640178;87;21031;-77
2022/09/13 11:07:57;;;;;;;4.97;4.47;;;;;;;18.64;84.55;99966.95;1629754;88;21135;-78
2022/09/13 11:10:51;;;;;;;6.62;4.20;;;;;;;18.66;84.32;99961.05;1613118;89;21570;-78
2022/09/13 11:13:32;;;;;;;5.17;4.50;;;;;;;18.70;84.03;99957.17;1636878;87;21036;-78
2022/09/13 11:16:44;;;;;;;6.47;4.53;;;;;;;18.73;83.72;99951.62;1630554;87;21544;-77
2022/09/13 11:19:40;;;;;;;5.17;3.70;;;;;;;18.76;83.48;99946.13;1622009;88;21064;-78
2022/09/13 11:22:40;;;;;;;4.62;3.95;;;;;;;18.80;83.36;99940.09;1636472;87;21305;-79
2022/09/13 11:25:34;;;;;;;6.40;4.15;;;;;;;18.78;82.88;99942.01;1621700;88;21105;-79
2022/09/13 11:28:34;;;;;;;4.50;4.10;;;;;;;18.77;82.71;99931.87;1636231;87;21098;-79
2022/09/13 11:31:34;;;;;;;5.15;3.87;;;;;;;18.79;82.83;99937.92;1637859;87;21043;-78
2022/09/13 11:34:10;;;;;;;6.28;4.20;;;;;;;18.80;82.56;99939.59;1642347;87;20976;-78
2022/09/13 11:36:46;;;;;;;4.97;4.53;;;;;;;18.80;82.60;99918.36;1637891;87;21181;-79
2022/09/13 11:39:27;;;;;;;5.80;5.17;;;;;;;18.83;82.51;99911.96;1614374;87;21056;-78
2022/09/13 11:42:38;;;;;;;5.42;4.92;;;;;;;18.83;82.19;99904.00;1601634;89;21099;-78
2022/09/13 11:45:31;;;;;;;6.17;4.85;;;;;;;18.80;82.03;99918.84;1602984;89;21513;-78
2022/09/13 11:48:30;;;;;;;6.00;4.62;;;;;;;18.75;82.02;99915.70;1604368;89;21552;-77
2022/09/13 11:51:18;;;;;;;6.90;4.90;;;;;;;18.71;81.70;99924.37;1567853;90;22023;-78
2022/09/13 11:54:10;;;;;;;6.55;4.40;;;;;;;18.67;81.66;99911.80;1605724;89;21072;-77
2022/09/13 11:56:44;;;;;;;5.17;4.67;;;;;;;18.62;81.49;99910.02;1604817;89;21080;-77
2022/09/13 11:59:39;;;;;;;5.12;4.67;;;;;;;18.58;81.56;99899.75;1605779;89;21009;-78
2022/09/13 12:02:23;;;;;;;6.28;4.80;;;;;;;18.57;81.46;99907.33;1601866;88;21056;-78